Time;durP1;ratioP1;P1;durP2;ratioP2;P2;SDS_P1;SDS_P2;PMS_P1;PMS_P2;Temp;Humidity;BMP_temperature;BMP_pressure;BME280_temperature;BME280_humidity;BME280_pressure;Samples;Min_cycle;Max_cycle;Signal;HPM_P1;HPM_P2
2023/09/01 00:01:36;;;;;;;1.60;1.50;;;12.50;99.90;;;;;;5221747;28;20219;-46
2023/09/01 00:04:07;;;;;;;2.80;1.70;;;12.50;99.90;;;;;;5240651;28;20179;-44
2023/09/01 00:06:37;;;;;;;1.40;1.40;;;12.50;99.90;;;;;;5222088;28;20210;-45
2023/09/01 00:09:08;;;;;;;1.50;1.47;;;12.50;99.90;;;;;;5227260;28;20194;-44
2023/09/01 00:11:38;;;;;;;1.57;1.40;;;12.50;99.90;;;;;;5206388;28;20202;-45
2023/09/01 00:14:09;;;;;;;2.30;1.40;;;12.40;99.90;;;;;;5223337;28;20179;-46
2023/09/01 00:16:40;;;;;;;3.80;1.53;;;12.40;99.90;;;;;;5223026;28;20186;-45
2023/09/01 00:19:12;;;;;;;4.30;1.80;;;12.40;99.90;;;;;;5265456;22;20256;-42
2023/09/01 00:21:42;;;;;;;1.90;1.90;;;12.30;99.90;;;;;;5257277;28;20182;-43
2023/09/01 00:24:16;;;;;;;1.73;1.63;;;12.40;99.90;;;;;;5262747;28;20431;-43
2023/09/01 00:26:46;;;;;;;6.33;1.40;;;12.30;99.90;;;;;;5259480;28;20209;-43
2023/09/01 00:29:17;;;;;;;1.30;1.30;;;12.30;99.90;;;;;;5247510;28;20508;-43
2023/09/01 00:31:48;;;;;;;2.30;1.70;;;12.20;99.90;;;;;;5245927;28;20250;-43
2023/09/01 00:34:19;;;;;;;1.30;1.30;;;12.20;99.90;;;;;;5243843;28;20540;-43
2023/09/01 00:36:50;;;;;;;3.20;1.90;;;12.20;99.90;;;;;;5248387;28;20497;-43
2023/09/01 00:39:21;;;;;;;2.83;2.27;;;12.20;99.90;;;;;;5244322;28;20614;-43
2023/09/01 00:41:51;;;;;;;1.57;1.57;;;12.20;99.90;;;;;;5241472;28;20186;-43
2023/09/01 00:44:22;;;;;;;2.03;1.90;;;12.10;99.90;;;;;;5249636;28;20265;-42
2023/09/01 00:46:53;;;;;;;2.80;2.00;;;12.10;99.90;;;;;;5248293;28;20736;-42
2023/09/01 00:49:23;;;;;;;6.50;1.57;;;12.00;99.90;;;;;;5245739;28;20209;-42
2023/09/01 00:51:54;;;;;;;3.53;1.70;;;12.00;99.90;;;;;;5247947;28;20171;-43
2023/09/01 00:54:25;;;;;;;2.10;1.50;;;12.00;99.90;;;;;;5255102;28;20169;-42
2023/09/01 00:56:56;;;;;;;2.00;1.80;;;11.80;99.90;;;;;;5243831;28;20179;-43
2023/09/01 00:59:27;;;;;;;1.57;1.57;;;12.00;99.90;;;;;;5245561;28;20457;-43
2023/09/01 01:01:58;;;;;;;3.50;2.37;;;12.00;99.90;;;;;;5246513;28;21605;-43
2023/09/01 01:04:31;;;;;;;2.77;1.50;;;12.10;99.90;;;;;;5244573;28;20948;-42
2023/09/01 01:07:22;;;;;;;2.03;1.83;;;12.00;99.90;;;;;;5250040;28;20475;-43
2023/09/01 01:10:13;;;;;;;2.27;1.83;;;12.10;99.90;;;;;;5246415;28;20437;-42
2023/09/01 01:12:56;;;;;;;3.30;1.80;;;12.00;99.90;;;;;;5253874;28;20427;-43
2023/09/01 01:15:32;;;;;;;2.37;2.00;;;12.00;99.90;;;;;;5257930;28;20472;-42
2023/09/01 01:18:08;;;;;;;1.70;1.60;;;12.00;99.90;;;;;;5249830;28;20472;-43
2023/09/01 01:20:42;;;;;;;1.93;1.83;;;11.90;99.90;;;;;;5238895;28;20447;-43
2023/09/01 01:23:16;;;;;;;2.53;2.00;;;11.90;99.90;;;;;;5244602;28;20875;-43
2023/09/01 01:25:49;;;;;;;4.53;1.50;;;11.90;99.90;;;;;;5240789;28;20967;-43
2023/09/01 01:28:22;;;;;;;1.97;1.87;;;11.80;99.90;;;;;;5246366;28;20483;-43
2023/09/01 01:30:52;;;;;;;1.90;1.80;;;11.80;99.90;;;;;;5243516;28;20441;-44
2023/09/01 01:33:42;;;;;;;1.97;1.80;;;11.80;99.90;;;;;;5238800;28;20447;-44
2023/09/01 01:36:28;;;;;;;1.80;1.80;;;11.80;99.90;;;;;;5237838;28;20186;-43
2023/09/01 01:39:06;;;;;;;4.10;2.10;;;11.90;99.90;;;;;;5240589;28;20509;-42
2023/09/01 01:41:48;;;;;;;3.70;1.90;;;11.80;99.90;;;;;;5236583;28;20478;-43
2023/09/01 01:44:25;;;;;;;1.83;1.73;;;11.80;99.90;;;;;;5249405;28;20433;-43
2023/09/01 01:46:57;;;;;;;5.67;2.00;;;11.80;99.90;;;;;;5241444;28;20484;-43
2023/09/01 01:49:28;;;;;;;1.90;1.80;;;11.80;99.90;;;;;;5250366;28;20445;-43
2023/09/01 01:51:59;;;;;;;1.83;1.73;;;11.80;99.90;;;;;;5254737;28;20864;-43
2023/09/01 01:54:31;;;;;;;4.73;1.93;;;11.80;99.90;;;;;;5242615;28;20436;-43
2023/09/01 01:57:01;;;;;;;1.80;1.70;;;11.80;99.90;;;;;;5250667;28;20448;-43
2023/09/01 01:59:32;;;;;;;3.20;1.80;;;11.80;99.90;;;;;;5247873;28;20465;-43
2023/09/01 02:02:05;;;;;;;4.13;2.63;;;11.80;99.90;;;;;;5257784;28;20185;-42
2023/09/01 02:04:36;;;;;;;3.53;3.23;;;11.70;99.90;;;;;;5243568;28;20190;-42
2023/09/01 02:07:07;;;;;;;2.43;2.23;;;11.70;99.90;;;;;;5248780;28;20518;-43
2023/09/01 02:09:38;;;;;;;2.30;2.20;;;11.80;99.90;;;;;;5256604;28;20174;-43
2023/09/01 02:12:08;;;;;;;2.60;2.40;;;11.70;99.90;;;;;;5242116;28;20441;-44
2023/09/01 02:14:39;;;;;;;2.17;2.07;;;11.70;99.90;;;;;;5245388;28;20629;-43
2023/09/01 02:17:10;;;;;;;7.70;2.50;;;11.70;99.90;;;;;;5237078;28;20197;-42
2023/09/01 02:19:41;;;;;;;3.70;2.80;;;11.70;99.90;;;;;;5241852;28;20216;-42
2023/09/01 02:22:11;;;;;;;2.43;2.33;;;11.70;99.90;;;;;;5243627;28;20191;-42
2023/09/01 02:24:42;;;;;;;3.10;2.80;;;11.60;99.90;;;;;;5251769;28;20696;-42
2023/09/01 02:27:13;;;;;;;2.30;2.20;;;11.60;99.90;;;;;;5250202;28;20197;-42
2023/09/01 02:29:43;;;;;;;2.33;1.90;;;11.60;99.90;;;;;;5236009;28;20248;-42
2023/09/01 02:32:14;;;;;;;4.40;2.30;;;11.60;99.90;;;;;;5248298;28;20183;-42
2023/09/01 02:34:45;;;;;;;2.77;2.57;;;11.60;99.90;;;;;;5245002;28;20186;-42
2023/09/01 02:37:15;;;;;;;4.40;2.23;;;11.60;99.90;;;;;;5244269;28;20208;-43
2023/09/01 02:39:46;;;;;;;2.70;2.43;;;11.70;99.90;;;;;;5246054;28;20240;-42
2023/09/01 02:42:16;;;;;;;3.70;3.40;;;11.70;99.90;;;;;;5251387;28;20550;-42
2023/09/01 02:44:47;;;;;;;3.23;3.03;;;11.60;99.90;;;;;;5246683;28;20201;-42
2023/09/01 02:47:18;;;;;;;3.63;2.30;;;11.50;99.90;;;;;;5242577;28;20266;-42
2023/09/01 02:49:48;;;;;;;3.07;2.57;;;11.50;99.90;;;;;;5228306;28;20662;-43
2023/09/01 02:52:19;;;;;;;2.80;2.70;;;11.50;99.90;;;;;;5247757;28;20174;-43
2023/09/01 02:54:50;;;;;;;2.70;2.30;;;11.40;99.90;;;;;;5244867;28;20193;-43
2023/09/01 02:57:20;;;;;;;2.20;2.10;;;11.40;99.90;;;;;;5250474;28;20182;-43
2023/09/01 02:59:54;;;;;;;2.93;2.20;;;11.60;99.90;;;;;;5247494;28;20182;-43
2023/09/01 03:02:25;;;;;;;9.00;2.90;;;11.50;99.90;;;;;;5244262;28;20245;-43
2023/09/01 03:04:56;;;;;;;2.13;1.93;;;11.60;99.90;;;;;;5246548;28;20527;-43
2023/09/01 03:07:28;;;;;;;2.80;2.60;;;11.50;99.90;;;;;;5243373;28;20665;-42
2023/09/01 03:09:59;;;;;;;3.13;2.93;;;11.50;99.90;;;;;;5247692;28;20432;-43
2023/09/01 03:12:29;;;;;;;2.30;2.20;;;11.50;99.90;;;;;;5253718;28;20439;-43
2023/09/01 03:15:00;;;;;;;3.73;2.93;;;11.40;99.90;;;;;;5256482;28;20182;-43
2023/09/01 03:17:31;;;;;;;2.20;2.20;;;11.40;99.90;;;;;;5251384;28;20285;-42
2023/09/01 03:20:04;;;;;;;3.20;3.00;;;11.40;99.90;;;;;;5255970;28;20201;-42
2023/09/01 03:22:34;;;;;;;2.83;2.73;;;11.40;99.90;;;;;;5238406;28;20270;-43
2023/09/01 03:25:09;;;;;;;4.60;2.50;;;11.40;99.90;;;;;;5241746;28;20571;-42
2023/09/01 03:27:40;;;;;;;3.83;2.20;;;11.40;99.90;;;;;;5246771;28;20220;-42
2023/09/01 03:30:11;;;;;;;3.57;2.90;;;11.40;99.90;;;;;;5252581;28;20440;-43
2023/09/01 03:32:42;;;;;;;8.03;3.30;;;11.30;99.90;;;;;;5245244;28;20171;-43
2023/09/01 03:35:13;;;;;;;5.13;3.17;;;11.30;99.90;;;;;;5240978;28;20444;-43
2023/09/01 03:37:44;;;;;;;2.90;2.70;;;11.20;99.90;;;;;;5237324;28;20236;-42
2023/09/01 03:40:14;;;;;;;2.90;2.70;;;11.20;99.90;;;;;;5249964;28;20185;-43
2023/09/01 03:42:45;;;;;;;3.13;2.90;;;11.10;99.90;;;;;;5240837;28;20662;-43
2023/09/01 03:45:15;;;;;;;2.33;2.23;;;11.10;99.90;;;;;;5244177;28;20186;-43
2023/09/01 03:47:47;;;;;;;4.07;2.90;;;11.10;99.90;;;;;;5251139;28;20225;-42
2023/09/01 03:50:18;;;;;;;3.13;3.00;;;11.10;99.90;;;;;;5250240;28;20185;-42
2023/09/01 03:52:49;;;;;;;3.40;3.20;;;11.10;99.90;;;;;;5245756;28;20437;-42
2023/09/01 03:55:19;;;;;;;2.83;2.60;;;11.10;99.90;;;;;;5249039;28;20190;-42
2023/09/01 03:57:50;;;;;;;2.93;2.83;;;11.10;99.90;;;;;;5243049;28;20644;-42
2023/09/01 04:00:22;;;;;;;3.50;3.20;;;11.30;99.90;;;;;;5249543;28;20197;-42
2023/09/01 04:02:52;;;;;;;3.07;2.87;;;11.30;99.90;;;;;;5245857;28;20354;-43
2023/09/01 04:05:23;;;;;;;4.60;3.50;;;11.20;99.90;;;;;;5252780;28;20435;-43
2023/09/01 04:07:54;;;;;;;5.73;3.70;;;11.20;99.90;;;;;;5247060;28;20476;-43
2023/09/01 04:10:24;;;;;;;3.47;3.17;;;11.20;99.90;;;;;;5244413;28;20212;-42
2023/09/01 04:12:58;;;;;;;3.07;2.80;;;11.30;99.90;;;;;;5245941;28;20182;-42
2023/09/01 04:15:29;;;;;;;3.17;2.80;;;11.30;99.90;;;;;;5251093;28;20171;-43
2023/09/01 04:18:00;;;;;;;2.87;2.67;;;11.50;99.90;;;;;;5253474;28;20618;-42
2023/09/01 04:20:30;;;;;;;3.87;3.53;;;11.40;99.90;;;;;;5248595;28;20185;-41
2023/09/01 04:23:01;;;;;;;4.10;2.73;;;11.60;99.90;;;;;;5250610;28;20189;-42
2023/09/01 04:25:33;;;;;;;2.77;2.67;;;11.40;99.90;;;;;;5246802;28;20187;-43
2023/09/01 04:28:04;;;;;;;6.00;3.90;;;11.30;99.90;;;;;;5248890;28;20199;-42
2023/09/01 04:30:36;;;;;;;2.80;2.70;;;11.30;99.90;;;;;;5244783;28;20433;-42
2023/09/01 04:33:07;;;;;;;5.40;3.80;;;11.20;99.90;;;;;;5247735;28;20183;-43
2023/09/01 04:35:38;;;;;;;4.20;3.00;;;11.20;99.90;;;;;;5244008;28;20440;-42
2023/09/01 04:38:09;;;;;;;4.30;3.33;;;11.30;99.90;;;;;;5261147;28;20205;-43
2023/09/01 04:40:40;;;;;;;7.00;2.77;;;11.30;99.90;;;;;;5236937;28;20436;-43
2023/09/01 04:43:11;;;;;;;2.73;2.63;;;11.30;99.90;;;;;;5216346;28;20190;-43
2023/09/01 04:45:45;;;;;;;3.83;3.63;;;11.40;99.90;;;;;;5217832;28;20536;-43
2023/09/01 04:48:15;;;;;;;7.33;3.40;;;11.60;99.90;;;;;;5245120;28;20548;-42
2023/09/01 04:50:47;;;;;;;4.87;3.13;;;11.60;99.90;;;;;;5245672;28;20465;-44
2023/09/01 04:53:18;;;;;;;7.50;4.50;;;11.50;99.90;;;;;;5244437;28;20265;-43
2023/09/01 04:55:49;;;;;;;8.20;4.00;;;11.50;99.90;;;;;;5248538;28;20454;-42
2023/09/01 04:58:20;;;;;;;4.43;4.03;;;11.50;99.90;;;;;;5240079;28;20486;-43
2023/09/01 05:00:51;;;;;;;3.17;2.97;;;11.50;99.90;;;;;;5233687;28;21016;-44
2023/09/01 05:03:22;;;;;;;3.77;3.47;;;11.60;99.90;;;;;;5236796;28;20494;-44
2023/09/01 05:05:53;;;;;;;4.53;3.20;;;12.00;99.90;;;;;;5251981;28;20956;-44
2023/09/01 05:08:23;;;;;;;3.07;2.97;;;12.40;99.90;;;;;;5234802;28;20206;-44
2023/09/01 05:10:54;;;;;;;4.70;3.47;;;12.90;99.90;;;;;;5240530;28;20662;-43
2023/09/01 05:13:26;;;;;;;3.10;2.97;;;13.40;99.90;;;;;;5239157;28;20174;-42
2023/09/01 05:15:57;;;;;;;5.30;3.10;;;13.80;99.90;;;;;;5228346;28;20273;-43
2023/09/01 05:18:28;;;;;;;6.00;3.30;;;14.20;99.90;;;;;;5251387;28;20495;-44
2023/09/01 05:20:58;;;;;;;4.87;3.33;;;14.50;99.90;;;;;;5241985;28;20201;-43
2023/09/01 05:23:32;;;;;;;2.33;2.23;;;14.50;99.90;;;;;;5250811;28;20186;-42
2023/09/01 05:26:02;;;;;;;8.33;3.40;;;14.30;99.90;;;;;;5239647;28;20218;-43
2023/09/01 05:28:33;;;;;;;3.90;3.47;;;14.10;99.90;;;;;;5256663;28;20466;-42
2023/09/01 05:31:04;;;;;;;4.20;3.03;;;13.90;99.90;;;;;;5252041;28;20201;-42
2023/09/01 05:33:34;;;;;;;3.83;3.50;;;13.70;99.90;;;;;;5243180;28;20254;-43
2023/09/01 05:36:05;;;;;;;4.03;2.70;;;13.70;99.90;;;;;;5245376;28;20186;-43
2023/09/01 05:38:36;;;;;;;2.67;2.50;;;13.80;99.90;;;;;;5241084;28;20206;-42
2023/09/01 05:41:10;;;;;;;2.57;2.47;;;13.80;99.90;;;;;;5245481;28;20431;-43
2023/09/01 05:43:41;;;;;;;5.17;2.70;;;13.80;99.90;;;;;;5226527;28;20190;-43
2023/09/01 05:46:11;;;;;;;3.43;2.90;;;14.30;99.90;;;;;;5241167;28;20453;-43
2023/09/01 05:48:42;;;;;;;2.87;2.67;;;14.90;99.90;;;;;;5249836;28;20190;-43
2023/09/01 05:51:13;;;;;;;2.90;2.80;;;15.50;99.90;;;;;;5244808;28;20178;-44
2023/09/01 05:53:43;;;;;;;3.90;2.77;;;17.50;99.90;;;;;;5243202;28;20418;-43
2023/09/01 05:56:16;;;;;;;4.03;2.73;;;19.60;99.90;;;;;;5250771;28;20182;-44
2023/09/01 05:58:47;;;;;;;5.43;2.57;;;21.50;99.90;;;;;;5241979;28;20285;-44
2023/09/01 06:01:18;;;;;;;4.53;2.40;;;22.80;93.00;;;;;;5245377;28;20452;-44
2023/09/01 06:03:49;;;;;;;7.17;2.43;;;23.70;85.10;;;;;;5247282;28;20932;-44
2023/09/01 06:06:19;;;;;;;4.70;2.20;;;24.00;77.80;;;;;;5246689;28;20574;-43
2023/09/01 06:08:50;;;;;;;5.23;2.33;;;24.10;72.90;;;;;;5247740;28;20241;-43
2023/09/01 06:11:21;;;;;;;2.20;2.10;;;24.40;70.10;;;;;;5247289;28;20183;-44
2023/09/01 06:13:52;;;;;;;2.20;1.77;;;24.90;68.60;;;;;;5234489;28;20175;-43
2023/09/01 06:16:25;;;;;;;3.83;1.90;;;25.60;62.20;;;;;;5242979;28;20190;-43
2023/09/01 06:18:59;;;;;;;3.07;2.30;;;26.20;61.40;;;;;;5240582;28;20206;-44
2023/09/01 06:21:33;;;;;;;3.30;2.60;;;26.50;58.20;;;;;;5250290;28;20439;-44
2023/09/01 06:24:04;;;;;;;2.53;2.33;;;26.90;56.80;;;;;;5239283;28;20510;-43
2023/09/01 06:26:35;;;;;;;5.00;1.97;;;27.30;54.60;;;;;;5239225;28;20476;-48
2023/09/01 06:29:06;;;;;;;2.10;2.00;;;27.50;53.30;;;;;;5222460;28;20459;-44
2023/09/01 06:31:36;;;;;;;2.50;2.40;;;27.50;51.90;;;;;;5232936;28;20453;-44
2023/09/01 06:34:07;;;;;;;1.93;1.83;;;28.00;52.10;;;;;;5234454;28;20611;-43
2023/09/01 06:36:38;;;;;;;6.00;1.80;;;28.40;50.10;;;;;;5229870;28;20190;-44
2023/09/01 06:39:09;;;;;;;2.20;1.90;;;28.80;49.10;;;;;;5237390;28;20214;-45
2023/09/01 06:41:40;;;;;;;2.17;1.90;;;29.20;47.50;;;;;;5234954;28;20626;-45
2023/09/01 06:44:11;;;;;;;3.13;1.97;;;29.00;47.60;;;;;;5243880;28;20432;-44
2023/09/01 06:46:41;;;;;;;1.70;1.60;;;30.00;46.10;;;;;;5242499;28;20202;-44
2023/09/01 06:49:12;;;;;;;3.00;2.80;;;30.70;44.60;;;;;;5248952;28;20315;-44
2023/09/01 06:51:43;;;;;;;5.30;2.30;;;31.00;43.10;;;;;;5253597;28;20186;-44
2023/09/01 06:54:14;;;;;;;2.30;2.20;;;31.30;42.20;;;;;;5249016;28;20263;-45
2023/09/01 06:56:45;;;;;;;3.20;1.83;;;31.20;42.10;;;;;;5247650;28;20186;-44
2023/09/01 06:59:15;;;;;;;2.23;2.13;;;31.50;41.70;;;;;;5253849;28;20263;-45
2023/09/01 07:01:46;;;;;;;2.20;2.10;;;32.00;40.80;;;;;;5246150;28;20182;-44
2023/09/01 07:04:16;;;;;;;6.13;2.17;;;32.10;40.20;;;;;;5237635;28;20283;-44
2023/09/01 07:06:47;;;;;;;5.67;2.93;;;32.50;39.70;;;;;;5247116;28;20213;-45
2023/09/01 07:09:18;;;;;;;3.13;2.30;;;32.50;40.20;;;;;;5236307;28;20223;-44
2023/09/01 07:11:49;;;;;;;2.90;2.30;;;32.60;39.20;;;;;;5233830;28;20618;-44
2023/09/01 07:14:19;;;;;;;2.87;2.30;;;32.40;38.20;;;;;;5248733;28;20183;-44
2023/09/01 07:16:50;;;;;;;5.33;2.00;;;32.10;39.00;;;;;;5248296;28;20269;-43
2023/09/01 07:19:21;;;;;;;3.50;2.73;;;31.30;40.50;;;;;;5239933;28;20214;-45
2023/09/01 07:21:52;;;;;;;8.37;2.33;;;31.80;39.10;;;;;;5240571;28;20183;-44
2023/09/01 07:24:22;;;;;;;9.10;2.77;;;32.50;39.10;;;;;;5251028;28;20218;-45
2023/09/01 07:26:53;;;;;;;5.90;2.00;;;32.90;37.70;;;;;;5243635;28;20202;-46
2023/09/01 07:29:24;;;;;;;1.87;1.60;;;33.30;37.50;;;;;;5241358;28;20782;-43
2023/09/01 07:31:55;;;;;;;2.30;2.10;;;33.30;37.80;;;;;;5235953;28;20186;-44
2023/09/01 07:34:26;;;;;;;3.70;2.13;;;33.70;37.10;;;;;;5250932;28;20174;-43
2023/09/01 07:36:57;;;;;;;2.87;2.00;;;33.90;36.70;;;;;;5249881;28;20205;-44
2023/09/01 07:39:27;;;;;;;1.80;1.67;;;34.00;35.90;;;;;;5235374;28;20507;-45
2023/09/01 07:41:58;;;;;;;6.47;2.10;;;33.30;36.80;;;;;;5233645;28;20261;-44
2023/09/01 07:44:29;;;;;;;3.93;2.33;;;33.30;37.40;;;;;;5238961;28;20197;-43
2023/09/01 07:47:00;;;;;;;4.53;2.03;;;33.40;37.20;;;;;;5232756;28;20617;-43
2023/09/01 07:49:30;;;;;;;2.10;2.00;;;33.60;37.10;;;;;;5234004;28;20747;-44
2023/09/01 07:52:01;;;;;;;15.37;3.07;;;33.50;36.70;;;;;;5241335;28;20182;-44
2023/09/01 07:54:33;;;;;;;8.37;2.47;;;33.70;36.30;;;;;;5234681;28;20709;-44
2023/09/01 07:57:04;;;;;;;2.43;1.93;;;34.00;36.50;;;;;;5236807;28;20582;-44
2023/09/01 07:59:35;;;;;;;10.13;2.70;;;33.70;36.60;;;;;;5235752;28;20209;-45
2023/09/01 08:02:06;;;;;;;2.83;2.10;;;33.10;36.30;;;;;;5238901;28;20684;-43
2023/09/01 08:04:36;;;;;;;4.57;2.30;;;32.60;37.00;;;;;;5230052;28;20185;-45
2023/09/01 08:07:07;;;;;;;3.23;3.00;;;31.90;38.40;;;;;;5235090;28;20300;-44
2023/09/01 08:09:38;;;;;;;3.23;1.60;;;31.50;38.70;;;;;;5239472;28;20179;-43
2023/09/01 08:12:08;;;;;;;2.60;2.40;;;31.40;39.00;;;;;;5236310;28;20190;-44
2023/09/01 08:14:39;;;;;;;3.43;2.03;;;31.60;38.50;;;;;;5245759;28;20614;-44
2023/09/01 08:17:10;;;;;;;3.27;2.50;;;31.90;39.00;;;;;;5242014;28;20174;-44
2023/09/01 08:19:40;;;;;;;5.20;2.53;;;31.40;39.00;;;;;;5245512;28;20206;-44
2023/09/01 08:22:11;;;;;;;4.10;2.67;;;30.70;41.10;;;;;;5244609;28;20299;-44
2023/09/01 08:24:43;;;;;;;2.83;2.07;;;30.30;41.20;;;;;;5243942;28;20201;-43
2023/09/01 08:27:14;;;;;;;3.60;2.90;;;29.60;42.70;;;;;;5241599;28;20213;-44
2023/09/01 08:29:45;;;;;;;2.03;1.93;;;28.30;44.40;;;;;;5246066;28;20436;-44
2023/09/01 08:32:16;;;;;;;9.03;3.30;;;27.70;46.20;;;;;;5236629;28;20187;-44
2023/09/01 08:34:47;;;;;;;5.23;2.87;;;26.70;47.70;;;;;;5236938;28;20182;-44
2023/09/01 08:37:19;;;;;;;8.77;2.40;;;26.10;48.50;;;;;;5243844;28;20986;-44
2023/09/01 08:39:49;;;;;;;3.70;1.97;;;25.30;49.80;;;;;;5237435;28;20206;-44
2023/09/01 08:42:21;;;;;;;7.00;2.20;;;24.30;51.00;;;;;;5236886;28;20480;-44
2023/09/01 08:44:53;;;;;;;1.87;1.77;;;23.20;52.50;;;;;;5239626;28;20183;-44
2023/09/01 08:47:25;;;;;;;6.20;3.10;;;22.50;54.80;;;;;;5238042;28;20465;-44
2023/09/01 08:49:56;;;;;;;3.43;2.27;;;22.10;56.10;;;;;;5242196;28;20502;-44
2023/09/01 08:52:29;;;;;;;6.87;3.00;;;21.50;56.70;;;;;;5238673;28;20432;-44
2023/09/01 08:55:00;;;;;;;2.50;2.10;;;21.30;57.70;;;;;;5245110;28;20175;-44
2023/09/01 08:57:31;;;;;;;4.20;2.17;;;21.10;58.00;;;;;;5241242;28;20602;-43
2023/09/01 09:00:04;;;;;;;10.03;2.23;;;20.90;58.80;;;;;;5243728;28;20591;-45
2023/09/01 09:02:36;;;;;;;2.20;2.00;;;20.60;58.20;;;;;;5241483;28;20503;-46
2023/09/01 09:05:12;;;;;;;2.80;1.87;;;20.50;59.00;;;;;;5243723;28;20438;-45
2023/09/01 09:07:57;;;;;;;2.90;2.70;;;20.50;59.40;;;;;;5226131;28;20477;-44
2023/09/01 09:10:36;;;;;;;3.40;1.90;;;20.60;58.90;;;;;;5233376;28;20433;-44
2023/09/01 09:13:22;;;;;;;5.23;1.47;;;20.60;58.50;;;;;;5237345;28;20463;-44
2023/09/01 09:16:05;;;;;;;1.77;1.67;;;20.60;58.90;;;;;;5239243;28;20880;-45
2023/09/01 09:18:37;;;;;;;4.03;1.87;;;20.60;58.90;;;;;;5233422;28;22520;-46
2023/09/01 09:21:37;;;;;;;3.47;1.43;;;20.50;58.20;;;;;;5233275;28;20875;-45
2023/09/01 09:24:08;;;;;;;4.00;1.60;;;20.30;58.40;;;;;;5223952;28;20432;-46
2023/09/01 09:26:39;;;;;;;3.83;1.63;;;20.20;58.90;;;;;;5238019;28;20946;-44
2023/09/01 09:29:12;;;;;;;3.03;1.57;;;20.30;59.30;;;;;;5237022;28;20559;-45
2023/09/01 09:31:44;;;;;;;4.53;2.23;;;20.30;58.70;;;;;;5240548;28;20269;-44
2023/09/01 09:34:27;;;;;;;7.73;2.40;;;20.20;58.50;;;;;;5238306;28;21027;-44
2023/09/01 09:36:57;;;;;;;1.73;1.63;;;20.00;59.20;;;;;;5238643;28;20425;-43
2023/09/01 09:39:34;;;;;;;3.20;1.40;;;19.90;59.40;;;;;;5233847;28;20480;-45
2023/09/01 09:42:05;;;;;;;2.80;1.93;;;19.60;59.30;;;;;;5238171;28;20689;-45
2023/09/01 09:44:35;;;;;;;2.73;2.13;;;19.60;60.00;;;;;;5235599;28;20465;-44
2023/09/01 09:47:10;;;;;;;1.63;1.53;;;19.40;59.80;;;;;;5237799;28;20270;-44
2023/09/01 09:49:41;;;;;;;3.40;2.00;;;19.30;61.00;;;;;;5241235;28;20200;-45
2023/09/01 09:52:14;;;;;;;3.47;1.63;;;19.50;61.50;;;;;;5220513;28;20440;-45
2023/09/01 09:54:48;;;;;;;4.37;1.73;;;19.80;61.30;;;;;;5232912;28;20425;-46
2023/09/01 09:57:21;;;;;;;2.63;1.60;;;19.80;60.60;;;;;;5230819;28;20514;-44
2023/09/01 10:00:08;;;;;;;2.53;1.47;;;19.90;61.00;;;;;;5234282;28;20436;-43
2023/09/01 10:02:49;;;;;;;2.60;1.80;;;19.90;60.80;;;;;;5237028;28;20512;-44
2023/09/01 10:05:22;;;;;;;4.87;1.80;;;19.90;61.20;;;;;;5238141;28;20447;-44
2023/09/01 10:07:54;;;;;;;6.77;1.90;;;20.00;61.60;;;;;;5244765;28;20542;-44
2023/09/01 10:10:24;;;;;;;4.97;2.23;;;20.20;61.20;;;;;;5246382;28;20428;-45
2023/09/01 10:12:55;;;;;;;1.70;1.60;;;20.50;61.20;;;;;;5233687;28;20448;-44
2023/09/01 10:15:27;;;;;;;2.20;2.00;;;20.50;59.20;;;;;;5256099;28;20213;-44
2023/09/01 10:18:01;;;;;;;2.77;2.50;;;20.50;59.50;;;;;;5253548;28;20215;-44
2023/09/01 10:20:34;;;;;;;5.27;2.40;;;20.50;59.80;;;;;;5242296;28;20454;-45
2023/09/01 10:23:07;;;;;;;4.03;2.50;;;20.60;60.50;;;;;;5241539;28;20432;-45
2023/09/01 10:25:38;;;;;;;2.40;1.60;;;20.70;60.00;;;;;;5232685;28;20441;-47
2023/09/01 10:28:13;;;;;;;2.00;1.30;;;20.60;58.30;;;;;;5232409;28;20480;-45
2023/09/01 10:30:46;;;;;;;2.17;1.47;;;20.90;58.60;;;;;;5239934;28;20444;-44
2023/09/01 10:33:25;;;;;;;2.80;1.50;;;21.10;58.40;;;;;;5252319;28;20772;-43
2023/09/01 10:35:59;;;;;;;2.17;1.90;;;21.10;56.80;;;;;;5239367;28;20468;-44
2023/09/01 10:38:37;;;;;;;1.53;1.43;;;21.10;56.90;;;;;;5248248;28;21009;-43
2023/09/01 10:41:07;;;;;;;9.93;2.03;;;21.00;57.60;;;;;;5236665;28;20509;-44
2023/09/01 10:43:50;;;;;;;4.30;2.57;;;20.70;57.60;;;;;;5240381;28;20849;-43
2023/09/01 10:46:21;;;;;;;4.20;2.53;;;20.50;57.50;;;;;;5234025;28;20194;-44
2023/09/01 10:48:59;;;;;;;2.67;2.07;;;20.50;58.30;;;;;;5228839;28;20463;-44
2023/09/01 10:51:33;;;;;;;2.30;2.20;;;20.50;58.80;;;;;;5240591;28;20174;-45
2023/09/01 10:54:16;;;;;;;3.73;2.60;;;20.50;59.20;;;;;;5221791;28;20441;-44
2023/09/01 10:56:58;;;;;;;6.83;2.70;;;20.50;58.50;;;;;;5233943;28;20436;-44
2023/09/01 10:59:34;;;;;;;2.43;1.90;;;20.40;58.90;;;;;;5240651;28;20452;-44
2023/09/01 11:02:20;;;;;;;2.30;1.90;;;20.60;58.90;;;;;;5244670;28;20525;-44
2023/09/01 11:04:51;;;;;;;1.83;1.50;;;20.80;58.80;;;;;;5235830;28;20614;-43
2023/09/01 11:07:21;;;;;;;3.67;2.30;;;21.00;58.40;;;;;;5242714;28;20552;-43
2023/09/01 11:09:55;;;;;;;2.33;1.63;;;21.40;58.40;;;;;;5239031;28;20651;-45
2023/09/01 11:12:29;;;;;;;2.83;1.80;;;21.60;57.10;;;;;;5250355;28;20175;-44
2023/09/01 11:15:01;;;;;;;1.87;1.67;;;21.50;56.80;;;;;;5226911;28;20434;-44
2023/09/01 11:17:40;;;;;;;2.03;1.40;;;21.50;56.40;;;;;;5238568;28;20502;-45
2023/09/01 11:20:12;;;;;;;5.97;2.77;;;21.50;55.40;;;;;;5237802;28;20444;-44
2023/09/01 11:22:43;;;;;;;4.10;2.10;;;21.60;56.00;;;;;;5236175;28;20507;-44
2023/09/01 11:25:15;;;;;;;2.20;1.77;;;21.80;55.50;;;;;;5236750;28;20460;-44
2023/09/01 11:27:49;;;;;;;2.87;1.73;;;21.80;55.60;;;;;;5245623;28;20207;-45
2023/09/01 11:30:20;;;;;;;1.80;1.60;;;21.80;55.90;;;;;;5241521;28;20421;-45
2023/09/01 11:32:51;;;;;;;3.17;2.27;;;21.80;56.00;;;;;;5242672;28;20424;-43
2023/09/01 11:35:27;;;;;;;2.97;2.67;;;21.60;56.40;;;;;;5243778;28;20526;-45
2023/09/01 11:37:58;;;;;;;2.07;1.97;;;21.80;56.20;;;;;;5244420;28;20472;-42
2023/09/01 11:40:32;;;;;;;4.67;2.30;;;21.90;55.60;;;;;;5239495;28;20821;-44
2023/09/01 11:43:03;;;;;;;3.50;1.90;;;22.00;55.60;;;;;;5241932;28;20218;-44
2023/09/01 11:45:34;;;;;;;3.70;1.80;;;22.00;55.50;;;;;;5246109;28;20456;-44
2023/09/01 11:48:05;;;;;;;2.03;1.93;;;22.20;55.40;;;;;;5246486;28;21303;-43
2023/09/01 11:50:37;;;;;;;3.30;2.13;;;22.30;55.30;;;;;;5243513;28;20183;-44
2023/09/01 11:53:07;;;;;;;8.00;3.10;;;22.60;55.00;;;;;;5246107;28;20567;-44
2023/09/01 11:55:43;;;;;;;3.03;2.43;;;22.90;54.80;;;;;;5228365;28;20528;-44
2023/09/01 11:58:13;;;;;;;1.90;1.80;;;23.20;54.70;;;;;;5227951;28;20221;-44
2023/09/01 12:00:44;;;;;;;4.43;2.50;;;23.30;54.00;;;;;;5237219;28;20422;-44
2023/09/01 12:03:21;;;;;;;3.00;2.57;;;23.10;54.10;;;;;;5244782;28;20173;-44
2023/09/01 12:05:52;;;;;;;2.00;1.80;;;23.10;53.90;;;;;;5232610;28;20793;-45
2023/09/01 12:08:25;;;;;;;4.37;2.23;;;23.10;54.30;;;;;;5245376;28;20495;-44
2023/09/01 12:11:05;;;;;;;3.03;1.90;;;23.20;53.70;;;;;;5245253;28;20306;-45
2023/09/01 12:13:36;;;;;;;4.40;2.40;;;23.30;53.30;;;;;;5242680;28;20456;-44
2023/09/01 12:16:07;;;;;;;3.77;2.50;;;23.40;53.50;;;;;;5251901;28;20436;-44
2023/09/01 12:18:38;;;;;;;3.43;1.40;;;23.10;54.10;;;;;;5250942;28;20217;-45
2023/09/01 12:21:10;;;;;;;5.47;2.17;;;23.20;54.30;;;;;;5247088;28;20177;-44
2023/09/01 12:23:43;;;;;;;2.10;2.00;;;23.10;53.80;;;;;;5253059;28;20969;-44
2023/09/01 12:26:15;;;;;;;2.33;2.13;;;23.30;54.60;;;;;;5258279;28;20539;-44
2023/09/01 12:28:45;;;;;;;5.20;2.03;;;23.50;53.90;;;;;;5244677;28;20540;-43
2023/09/01 12:31:16;;;;;;;2.53;2.30;;;23.80;53.20;;;;;;5242765;28;20528;-44
2023/09/01 12:33:47;;;;;;;6.47;2.73;;;24.30;52.80;;;;;;5219632;28;20182;-45
2023/09/01 12:36:17;;;;;;;5.43;2.40;;;24.60;52.30;;;;;;5241813;28;20206;-45
2023/09/01 12:38:48;;;;;;;5.13;2.60;;;24.70;50.50;;;;;;5246399;28;20262;-44
2023/09/01 12:41:19;;;;;;;5.10;2.03;;;24.50;50.70;;;;;;5255030;28;20189;-45
2023/09/01 12:43:49;;;;;;;3.03;1.83;;;24.30;50.40;;;;;;5245213;28;20175;-44
2023/09/01 12:46:20;;;;;;;12.00;3.20;;;24.10;50.80;;;;;;5247373;28;20214;-44
2023/09/01 12:48:50;;;;;;;2.47;2.27;;;23.80;50.40;;;;;;5245550;28;20190;-45
2023/09/01 12:51:21;;;;;;;4.33;2.00;;;23.60;50.90;;;;;;5244978;28;20179;-45
2023/09/01 12:53:52;;;;;;;1.60;1.50;;;23.60;51.00;;;;;;5241871;28;20183;-44
2023/09/01 12:56:22;;;;;;;1.83;1.73;;;23.30;51.10;;;;;;5245436;28;20283;-44
2023/09/01 12:58:53;;;;;;;2.10;2.00;;;23.10;52.20;;;;;;5242453;28;20285;-44
2023/09/01 13:01:24;;;;;;;2.17;1.90;;;22.90;53.00;;;;;;5240819;28;20595;-45
2023/09/01 13:03:55;;;;;;;2.70;1.50;;;22.90;53.60;;;;;;5227193;28;20443;-46
2023/09/01 13:06:25;;;;;;;1.53;1.53;;;23.10;53.20;;;;;;5229688;28;20293;-44
2023/09/01 13:08:56;;;;;;;2.40;1.77;;;23.10;52.20;;;;;;5226385;28;20617;-46
2023/09/01 13:11:27;;;;;;;16.03;3.03;;;23.00;51.70;;;;;;5237794;28;20175;-46